Time;durP1;ratioP1;P1;durP2;ratioP2;P2;SDS_P1;SDS_P2;PMS_P1;PMS_P2;Temp;Humidity;BMP_temperature;BMP_pressure;BME280_temperature;BME280_humidity;BME280_pressure;Samples;Min_cycle;Max_cycle;Signal;HPM_P1;HPM_P2
2024/01/08 00:00:05;;;;;;;0.82;0.82;;;;;;;8.75;100.00;93072.91;5093796;28;20207;-78
2024/01/08 00:02:32;;;;;;;0.47;0.47;;;;;;;8.66;100.00;93072.34;5090372;28;20281;-77
2024/01/08 00:04:59;;;;;;;0.60;0.60;;;;;;;8.85;100.00;93077.75;5092584;28;20226;-77
2024/01/08 00:07:27;;;;;;;0.30;0.30;;;;;;;8.85;100.00;93078.53;5096866;28;20260;-76
2024/01/08 00:09:59;;;;;;;5.22;1.83;;;;;;;8.82;100.00;93083.88;5090823;28;20210;-78
2024/01/08 00:12:26;;;;;;;0.82;0.82;;;;;;;8.90;100.00;93085.56;5092041;28;20256;-78
2024/01/08 00:14:58;;;;;;;1.08;1.08;;;;;;;8.87;100.00;93075.50;5091552;28;20330;-78
2024/01/08 00:17:30;;;;;;;0.60;0.60;;;;;;;9.03;100.00;93084.28;5099919;28;20198;-78
2024/01/08 00:19:57;;;;;;;0.73;0.73;;;;;;;8.94;100.00;93081.03;5101272;28;20608;-77
2024/01/08 00:22:26;;;;;;;0.38;0.38;;;;;;;8.85;100.00;93085.84;5092568;28;20221;-78
2024/01/08 00:24:54;;;;;;;0.40;0.40;;;;;;;8.76;100.00;93085.25;5089634;28;20633;-77
2024/01/08 00:27:22;;;;;;;0.68;0.68;;;;;;;8.71;100.00;93088.25;5091507;28;20206;-77
2024/01/08 00:29:51;;;;;;;0.85;0.68;;;;;;;8.76;100.00;93086.03;5092963;28;20198;-76
2024/01/08 00:32:18;;;;;;;0.20;0.20;;;;;;;8.72;100.00;93089.81;5089877;28;20233;-77
2024/01/08 00:34:48;;;;;;;1.65;0.43;;;;;;;8.63;100.00;93089.22;5090849;28;20234;-77
2024/01/08 00:37:14;;;;;;;0.30;0.30;;;;;;;8.42;100.00;93095.72;5091129;28;20285;-77
2024/01/08 00:39:43;;;;;;;0.20;0.20;;;;;;;8.20;100.00;93077.44;5092241;28;20673;-77
2024/01/08 00:42:14;;;;;;;0.60;0.60;;;;;;;8.32;100.00;93093.59;5093538;28;20210;-78
2024/01/08 00:44:44;;;;;;;0.30;0.30;;;;;;;8.37;100.00;93093.28;5092972;28;20666;-77
2024/01/08 00:47:13;;;;;;;0.75;0.52;;;;;;;8.45;100.00;93103.13;5091734;28;20226;-78
2024/01/08 00:49:43;;;;;;;0.20;0.20;;;;;;;8.41;100.00;93106.88;5090598;28;20252;-76
2024/01/08 00:52:09;;;;;;;0.20;0.20;;;;;;;8.37;100.00;93100.59;5090660;28;20217;-78
2024/01/08 00:54:36;;;;;;;0.20;0.20;;;;;;;8.30;100.00;93105.81;5088006;28;20214;-79
2024/01/08 00:57:04;;;;;;;0.30;0.30;;;;;;;8.41;100.00;93109.56;5093703;28;20206;-76
2024/01/08 00:59:32;;;;;;;0.47;0.47;;;;;;;8.45;100.00;93111.22;5090076;28;20209;-77
2024/01/08 01:01:59;;;;;;;0.20;0.20;;;;;;;8.37;100.00;93114.88;5093068;28;20197;-76
2024/01/08 01:04:26;;;;;;;0.20;0.20;;;;;;;8.47;100.00;93110.88;5090304;28;20213;-77
2024/01/08 01:06:53;;;;;;;0.10;0.10;;;;;;;8.40;100.00;93116.09;5095646;28;20253;-76
2024/01/08 01:09:20;;;;;;;0.30;0.30;;;;;;;8.31;100.00;93118.19;5091132;28;20214;-76
2024/01/08 01:11:47;;;;;;;0.25;0.25;;;;;;;8.26;100.00;93123.81;5092216;28;20230;-76
2024/01/08 01:14:14;;;;;;;0.20;0.20;;;;;;;8.36;100.00;93121.41;5092333;28;20541;-75
2024/01/08 01:16:42;;;;;;;0.32;0.25;;;;;;;8.20;100.00;93116.00;5096392;28;20199;-76
2024/01/08 01:19:11;;;;;;;0.20;0.20;;;;;;;8.29;100.00;93126.63;5087896;28;20198;-77
2024/01/08 01:21:41;;;;;;;0.20;0.20;;;;;;;8.23;100.00;93125.28;5091302;28;20646;-76
2024/01/08 01:24:07;;;;;;;0.20;0.20;;;;;;;8.30;100.00;93133.56;5089828;28;20202;-76
2024/01/08 01:26:34;;;;;;;0.17;0.17;;;;;;;8.13;100.00;93134.72;5091609;28;20588;-76
2024/01/08 01:29:01;;;;;;;0.30;0.30;;;;;;;8.28;100.00;93124.25;5090839;28;20563;-77
2024/01/08 01:31:28;;;;;;;1.58;1.48;;;;;;;8.24;100.00;93132.25;5088567;28;20551;-78
2024/01/08 01:33:56;;;;;;;0.50;0.50;;;;;;;8.24;100.00;93134.19;5090010;28;20519;-78
2024/01/08 01:36:23;;;;;;;0.20;0.20;;;;;;;8.32;100.00;93136.75;5092649;28;20613;-78
2024/01/08 01:38:49;;;;;;;0.22;0.22;;;;;;;8.25;100.00;93133.81;5090551;28;20199;-77
2024/01/08 01:41:16;;;;;;;0.20;0.20;;;;;;;8.15;100.00;93135.16;5091721;28;20199;-77
2024/01/08 01:43:43;;;;;;;0.40;0.40;;;;;;;7.96;100.00;93126.19;5091460;28;20642;-76
2024/01/08 01:46:21;;;;;;;0.20;0.20;;;;;;;7.98;100.00;93132.00;5089825;28;20253;-77
2024/01/08 01:48:48;;;;;;;0.35;0.35;;;;;;;8.02;100.00;93130.97;5098351;28;20562;-77
2024/01/08 01:51:16;;;;;;;0.20;0.20;;;;;;;8.08;100.00;93137.66;5094359;28;20234;-77
2024/01/08 01:53:43;;;;;;;0.20;0.20;;;;;;;8.03;100.00;93134.47;5096331;28;20296;-76
2024/01/08 01:56:10;;;;;;;0.25;0.25;;;;;;;7.92;100.00;93136.91;5091639;28;20202;-78
2024/01/08 01:58:37;;;;;;;0.47;0.47;;;;;;;8.01;100.00;93147.50;5094471;28;20610;-78
2024/01/08 02:01:04;;;;;;;0.20;0.20;;;;;;;7.81;100.00;93149.28;5094191;28;20948;-77
2024/01/08 02:03:33;;;;;;;0.43;0.43;;;;;;;8.00;100.00;93140.53;5097853;28;20296;-75
2024/01/08 02:06:00;;;;;;;0.30;0.30;;;;;;;7.80;100.00;93145.81;5096166;28;20305;-78
2024/01/08 02:08:30;;;;;;;2.38;2.15;;;;;;;7.44;100.00;93129.84;5096838;28;20202;-78
2024/01/08 02:10:57;;;;;;;0.40;0.40;;;;;;;7.56;100.00;93154.03;5095710;28;20286;-77
2024/01/08 02:13:24;;;;;;;0.30;0.30;;;;;;;7.57;100.00;93152.91;5096841;28;20198;-77
2024/01/08 02:15:51;;;;;;;0.47;0.47;;;;;;;7.60;100.00;93149.53;5090861;28;20198;-75
2024/01/08 02:18:19;;;;;;;2.05;1.95;;;;;;;7.44;100.00;93151.41;5094354;28;20209;-76
2024/01/08 02:20:46;;;;;;;1.27;1.17;;;;;;;7.41;100.00;93144.78;5093871;28;20247;-78
2024/01/08 02:23:15;;;;;;;0.20;0.20;;;;;;;7.52;100.00;93155.84;5096428;28;20606;-78
2024/01/08 02:25:45;;;;;;;0.40;0.40;;;;;;;7.46;100.00;93149.16;5093148;28;20624;-78
2024/01/08 02:28:12;;;;;;;0.20;0.20;;;;;;;7.60;100.00;93154.94;5095846;28;20202;-77
2024/01/08 02:30:39;;;;;;;0.20;0.20;;;;;;;7.60;100.00;93154.94;5094675;28;20201;-77
2024/01/08 02:33:06;;;;;;;0.20;0.20;;;;;;;7.54;100.00;93158.97;5093383;28;20374;-77
2024/01/08 02:35:33;;;;;;;0.20;0.20;;;;;;;7.43;100.00;93163.31;5093720;28;20271;-76
2024/01/08 02:37:59;;;;;;;0.35;0.35;;;;;;;7.54;100.00;93171.66;5092096;28;20202;-77
2024/01/08 02:40:30;;;;;;;0.20;0.20;;;;;;;7.63;100.00;93162.31;5093415;28;20780;-75
2024/01/08 02:42:57;;;;;;;0.63;0.45;;;;;;;7.54;100.00;93167.06;5093807;28;20302;-78
2024/01/08 02:45:23;;;;;;;0.20;0.20;;;;;;;7.54;100.00;93172.47;5093856;28;20210;-77
2024/01/08 02:47:58;;;;;;;0.73;0.73;;;;;;;7.54;100.00;93172.47;5097785;28;20214;-76
2024/01/08 02:50:25;;;;;;;0.20;0.20;;;;;;;7.57;100.00;93179.84;5084962;28;20242;-78
2024/01/08 02:52:54;;;;;;;0.20;0.20;;;;;;;7.54;100.00;93166.28;5074319;28;20199;-77
2024/01/08 02:55:21;;;;;;;0.30;0.30;;;;;;;7.71;100.00;93182.94;5073341;28;20203;-77
2024/01/08 02:57:49;;;;;;;0.30;0.30;;;;;;;7.80;100.00;93180.84;5073340;28;20211;-78
2024/01/08 03:00:17;;;;;;;0.20;0.20;;;;;;;7.62;100.00;93185.00;5074738;28;20601;-76
2024/01/08 03:02:44;;;;;;;0.43;0.43;;;;;;;7.70;100.00;93186.75;5073211;28;20809;-76
2024/01/08 03:05:10;;;;;;;0.13;0.13;;;;;;;7.68;100.00;93194.41;5072458;28;20617;-76
2024/01/08 03:07:37;;;;;;;0.20;0.20;;;;;;;7.74;100.00;93193.03;5072390;28;20237;-77
2024/01/08 03:10:05;;;;;;;0.15;0.15;;;;;;;7.61;100.00;93204.22;5072301;28;20218;-77
2024/01/08 03:12:31;;;;;;;0.20;0.20;;;;;;;7.69;100.00;93205.97;5073884;28;20206;-79
2024/01/08 03:15:01;;;;;;;0.50;0.50;;;;;;;7.64;100.00;93209.72;5072429;28;20207;-77
2024/01/08 03:17:28;;;;;;;0.40;0.40;;;;;;;7.61;100.00;93205.00;5071743;28;20211;-77
2024/01/08 03:19:55;;;;;;;0.45;0.45;;;;;;;7.56;100.00;93213.31;5072067;28;20705;-77
2024/01/08 03:22:22;;;;;;;0.20;0.20;;;;;;;7.57;100.00;93214.09;5071898;28;20260;-78
2024/01/08 03:24:52;;;;;;;0.45;0.45;;;;;;;7.65;100.00;93216.66;5071579;28;20675;-76
2024/01/08 03:27:19;;;;;;;0.30;0.30;;;;;;;7.66;100.00;93212.03;5054752;28;20219;-77
2024/01/08 03:29:46;;;;;;;0.30;0.30;;;;;;;7.69;100.00;93217.53;5071885;28;20624;-77
2024/01/08 03:32:14;;;;;;;0.20;0.20;;;;;;;7.72;100.00;93216.06;5071467;28;20253;-76
2024/01/08 03:34:43;;;;;;;0.28;0.28;;;;;;;7.58;100.00;93229.94;5074384;28;20605;-78
2024/01/08 03:37:09;;;;;;;0.20;0.20;;;;;;;7.50;100.00;93233.56;5071457;28;20225;-77
2024/01/08 03:39:36;;;;;;;0.55;0.40;;;;;;;7.59;100.00;93234.19;5069424;28;20330;-77
2024/01/08 03:42:03;;;;;;;0.20;0.20;;;;;;;7.61;100.00;93229.25;5072079;28;20214;-75
2024/01/08 03:44:30;;;;;;;0.20;0.20;;;;;;;7.43;100.00;93236.81;5073883;28;20225;-78
2024/01/08 03:46:57;;;;;;;3.10;0.30;;;;;;;7.46;100.00;93240.75;5071437;28;20765;-75
2024/01/08 03:49:26;;;;;;;0.30;0.30;;;;;;;7.47;100.00;93245.78;5074717;28;20691;-75
2024/01/08 03:51:53;;;;;;;0.20;0.20;;;;;;;7.41;100.00;93244.47;5092096;28;20199;-77
2024/01/08 03:54:19;;;;;;;0.43;0.43;;;;;;;7.40;100.00;93250.19;5092448;28;20609;-77
2024/01/08 03:56:46;;;;;;;0.30;0.30;;;;;;;7.45;100.00;93258.03;5092188;28;20191;-77
2024/01/08 03:59:13;;;;;;;0.65;0.55;;;;;;;7.39;100.00;93262.88;5092536;28;20202;-77
2024/01/08 04:01:44;;;;;;;0.20;0.20;;;;;;;7.42;100.00;93256.03;5092686;28;20210;-76
2024/01/08 04:04:11;;;;;;;0.20;0.20;;;;;;;7.38;100.00;93265.94;5091443;28;20800;-77
2024/01/08 04:06:39;;;;;;;0.63;0.63;;;;;;;7.50;100.00;93268.59;5091967;28;20713;-76
2024/01/08 04:09:06;;;;;;;0.20;0.20;;;;;;;7.26;100.00;93268.63;5093182;28;20571;-79
2024/01/08 04:11:33;;;;;;;0.20;0.20;;;;;;;7.64;100.00;93263.59;5096094;28;20562;-76
2024/01/08 04:14:00;;;;;;;0.52;0.52;;;;;;;8.31;100.00;93269.25;5092648;28;20610;-79
2024/01/08 04:16:26;;;;;;;0.30;0.30;;;;;;;8.29;100.00;93277.66;5094522;28;20227;-76
2024/01/08 04:18:53;;;;;;;0.20;0.20;;;;;;;7.88;100.00;93283.50;5093153;28;20213;-78
2024/01/08 04:21:20;;;;;;;0.65;0.60;;;;;;;7.35;100.00;93283.53;5095503;28;20198;-79
2024/01/08 04:23:48;;;;;;;0.20;0.20;;;;;;;7.38;100.00;93288.22;5093841;28;20551;-77
2024/01/08 04:26:15;;;;;;;0.30;0.30;;;;;;;7.21;100.00;93287.72;5091527;28;20226;-78
2024/01/08 04:28:42;;;;;;;0.22;0.22;;;;;;;7.30;100.00;93291.06;5089118;28;20194;-77
2024/01/08 04:31:17;;;;;;;0.20;0.20;;;;;;;7.24;100.00;93290.53;5092993;28;20201;-78
2024/01/08 04:33:44;;;;;;;1.40;1.30;;;;;;;7.13;100.00;93300.94;5089772;28;20190;-75
2024/01/08 04:36:11;;;;;;;0.38;0.38;;;;;;;7.02;100.00;93302.53;5073631;28;20256;-76
2024/01/08 04:38:37;;;;;;;0.28;0.28;;;;;;;7.02;100.00;93302.53;5092382;28;20551;-78
2024/01/08 04:41:06;;;;;;;0.20;0.20;;;;;;;6.90;100.00;93310.63;5092384;28;20210;-76
2024/01/08 04:43:32;;;;;;;0.30;0.30;;;;;;;6.76;100.00;93316.34;5095314;28;20259;-78
2024/01/08 04:45:59;;;;;;;0.20;0.20;;;;;;;6.40;100.00;93286.72;5097635;28;20286;-79
2024/01/08 04:48:26;;;;;;;0.70;0.68;;;;;;;6.53;100.00;93319.78;5090612;28;20206;-78
2024/01/08 04:50:53;;;;;;;0.20;0.20;;;;;;;6.51;100.00;93327.41;5079555;28;20316;-78
2024/01/08 04:53:20;;;;;;;0.20;0.20;;;;;;;6.52;100.00;93337.03;5071226;28;20513;-77
2024/01/08 04:55:46;;;;;;;0.20;0.20;;;;;;;6.41;100.00;93342.88;5069734;28;20619;-78
2024/01/08 04:58:15;;;;;;;2.35;1.30;;;;;;;6.37;100.00;93354.59;5071215;28;20211;-78
2024/01/08 05:00:42;;;;;;;0.95;0.95;;;;;;;6.28;100.00;93367.34;5070682;28;20211;-78
2024/01/08 05:03:10;;;;;;;1.42;1.08;;;;;;;6.35;100.00;93360.31;5078238;28;20210;-79
2024/01/08 05:05:36;;;;;;;2.03;1.20;;;;;;;6.52;100.00;93358.56;5081379;28;20207;-78
2024/01/08 05:08:04;;;;;;;0.30;0.30;;;;;;;6.35;100.00;93362.22;5070523;28;20308;-78
2024/01/08 05:10:31;;;;;;;0.32;0.32;;;;;;;6.30;100.00;93368.56;5077013;28;20206;-78
2024/01/08 05:12:58;;;;;;;0.20;0.20;;;;;;;6.23;100.00;93373.72;5091813;28;20202;-77
2024/01/08 05:15:26;;;;;;;0.20;0.20;;;;;;;6.20;100.00;93387.81;5079847;28;20282;-78
2024/01/08 05:17:53;;;;;;;0.30;0.30;;;;;;;6.12;100.00;93383.31;5070697;28;20206;-77
2024/01/08 05:20:19;;;;;;;0.25;0.25;;;;;;;6.03;100.00;93391.44;5069613;28;20207;-76
2024/01/08 05:22:47;;;;;;;0.20;0.20;;;;;;;6.06;100.00;93396.16;5069956;28;20203;-77
2024/01/08 05:25:14;;;;;;;0.55;0.55;;;;;;;5.89;100.00;93396.28;5068977;28;20294;-77
2024/01/08 05:27:40;;;;;;;0.80;0.80;;;;;;;6.02;100.00;93399.81;5068298;28;20226;-76
2024/01/08 05:30:09;;;;;;;0.77;0.70;;;;;;;5.91;100.00;93414.78;5069372;28;20210;-75
2024/01/08 05:32:37;;;;;;;4.40;0.85;;;;;;;5.94;100.00;93414.13;5069662;28;20215;-76
2024/01/08 05:35:05;;;;;;;1.35;0.80;;;;;;;5.92;100.00;93417.13;5070107;28;20210;-77
2024/01/08 05:37:32;;;;;;;1.77;0.98;;;;;;;5.87;100.00;93424.59;5071286;28;20211;-78
2024/01/08 05:39:58;;;;;;;0.93;0.75;;;;;;;5.78;100.00;93423.84;5071838;28;20606;-76
2024/01/08 05:42:25;;;;;;;1.77;0.80;;;;;;;5.81;100.00;93431.28;5071127;28;20686;-78
2024/01/08 05:44:52;;;;;;;1.50;0.80;;;;;;;5.67;100.00;93437.69;5071580;28;20335;-77
2024/01/08 05:47:19;;;;;;;0.50;0.50;;;;;;;5.66;100.00;93441.47;5071289;28;20226;-78
2024/01/08 05:49:47;;;;;;;0.20;0.20;;;;;;;5.78;100.00;93453.41;5074553;28;20349;-77
2024/01/08 05:52:14;;;;;;;0.68;0.68;;;;;;;5.76;100.00;93450.25;5091823;28;20666;-77
2024/01/08 05:54:40;;;;;;;0.50;0.50;;;;;;;5.57;100.00;93443.44;5091400;28;20209;-78
2024/01/08 05:57:07;;;;;;;0.30;0.30;;;;;;;5.47;100.00;93459.91;5090886;28;20275;-78
2024/01/08 05:59:34;;;;;;;0.30;0.30;;;;;;;5.34;100.00;93455.53;5091212;28;20718;-78
2024/01/08 06:02:01;;;;;;;0.20;0.20;;;;;;;5.25;100.00;93462.84;5090896;28;20231;-77
2024/01/08 06:04:28;;;;;;;0.30;0.30;;;;;;;5.11;100.00;93473.00;5091350;28;20629;-77
2024/01/08 06:06:56;;;;;;;0.20;0.20;;;;;;;5.10;100.00;93474.13;5091190;28;20229;-78
2024/01/08 06:09:23;;;;;;;0.30;0.30;;;;;;;4.99;100.00;93479.84;5103168;28;20214;-78
2024/01/08 06:11:49;;;;;;;1.25;0.80;;;;;;;5.00;100.00;93486.78;5111441;28;20228;-78
2024/01/08 06:14:16;;;;;;;1.00;0.90;;;;;;;4.85;100.00;93492.66;5111468;28;20217;-78
2024/01/08 06:16:43;;;;;;;0.75;0.75;;;;;;;4.81;100.00;93493.63;5111127;28;20220;-77
2024/01/08 06:19:10;;;;;;;0.77;0.63;;;;;;;4.84;100.00;93488.41;5111403;28;20262;-76
2024/01/08 06:21:37;;;;;;;1.13;0.82;;;;;;;4.97;100.00;93492.00;5111330;28;20240;-77
2024/01/08 06:24:06;;;;;;;1.23;0.90;;;;;;;4.85;100.00;93503.41;5111634;28;20650;-78
2024/01/08 06:26:32;;;;;;;2.13;0.85;;;;;;;4.78;100.00;93508.47;5110916;28;20202;-78
2024/01/08 06:29:00;;;;;;;0.73;0.60;;;;;;;4.64;100.00;93503.28;5111485;28;20210;-76
2024/01/08 06:31:27;;;;;;;1.58;1.15;;;;;;;4.66;100.00;93516.38;5092201;28;20220;-78
2024/01/08 06:33:54;;;;;;;2.15;1.20;;;;;;;4.65;100.00;93514.78;5113525;28;20205;-77
2024/01/08 06:36:20;;;;;;;4.10;1.45;;;;;;;4.62;100.00;93521.59;5115112;28;20201;-77
2024/01/08 06:38:47;;;;;;;1.50;1.20;;;;;;;4.65;100.00;93530.88;5114924;28;20242;-79
2024/01/08 06:41:16;;;;;;;2.35;0.65;;;;;;;4.59;100.00;93535.63;5077276;28;20203;-78
2024/01/08 06:43:43;;;;;;;0.25;0.25;;;;;;;4.66;100.00;93540.50;5101598;28;20225;-77
2024/01/08 06:46:10;;;;;;;0.20;0.20;;;;;;;4.61;100.00;93546.03;5115001;28;20205;-77
2024/01/08 06:48:37;;;;;;;0.30;0.30;;;;;;;4.50;100.00;93550.16;5114666;28;20615;-77
2024/01/08 06:51:04;;;;;;;0.30;0.30;;;;;;;4.48;100.00;93547.00;5114308;28;20245;-78
2024/01/08 06:53:31;;;;;;;0.52;0.52;;;;;;;4.33;100.00;93545.56;5113970;28;20217;-77
2024/01/08 06:55:58;;;;;;;0.20;0.20;;;;;;;4.33;100.00;93563.53;5094012;28;20217;-77
2024/01/08 06:58:26;;;;;;;0.55;0.55;;;;;;;4.29;100.00;93572.19;5093735;28;20214;-77
2024/01/08 07:00:52;;;;;;;1.55;0.90;;;;;;;4.43;100.00;93572.06;5093818;28;20642;-77
2024/01/08 07:03:19;;;;;;;2.13;1.15;;;;;;;4.38;100.00;93574.09;5108506;28;20266;-78
2024/01/08 07:05:47;;;;;;;1.20;1.10;;;;;;;4.38;100.00;93588.28;5114622;28;20607;-75
2024/01/08 07:08:14;;;;;;;1.02;0.98;;;;;;;4.32;100.00;93591.44;5114207;28;20777;-77
2024/01/08 07:10:41;;;;;;;1.33;1.23;;;;;;;4.28;100.00;93589.38;5114610;28;20603;-76
2024/01/08 07:13:07;;;;;;;1.48;1.25;;;;;;;4.37;100.00;93594.78;5114677;28;20206;-77
2024/01/08 07:15:40;;;;;;;0.85;0.82;;;;;;;4.47;100.00;93604.41;5114230;28;20216;-77
2024/01/08 07:18:09;;;;;;;0.70;0.70;;;;;;;4.45;100.00;93602.03;5113958;28;20206;-78
2024/01/08 07:20:37;;;;;;;1.17;1.02;;;;;;;4.42;100.00;93612.59;5114430;28;20244;-79
2024/01/08 07:23:04;;;;;;;0.20;0.20;;;;;;;4.29;100.00;93614.31;5113857;28;20235;-75
2024/01/08 07:25:31;;;;;;;0.20;0.20;;;;;;;4.32;100.00;93623.63;5114389;28;20653;-77
2024/01/08 07:27:59;;;;;;;0.20;0.20;;;;;;;4.26;100.00;93637.16;5113759;28;20237;-76
2024/01/08 07:30:26;;;;;;;0.20;0.20;;;;;;;4.15;100.00;93622.47;5113886;28;20259;-78
2024/01/08 07:32:54;;;;;;;0.70;0.70;;;;;;;4.30;100.00;93642.69;5113203;28;20328;-77
2024/01/08 07:35:21;;;;;;;0.20;0.20;;;;;;;4.14;100.00;93645.00;5113843;28;20564;-77
2024/01/08 07:37:51;;;;;;;0.28;0.28;;;;;;;4.26;100.00;93642.50;5113281;28;20209;-77
2024/01/08 07:40:17;;;;;;;1.50;1.20;;;;;;;4.35;100.00;93658.63;5114070;28;20214;-78
2024/01/08 07:42:44;;;;;;;1.23;1.13;;;;;;;4.30;100.00;93664.13;5113677;28;20206;-77
2024/01/08 07:45:11;;;;;;;0.68;0.68;;;;;;;4.19;100.00;93673.56;5099889;28;20199;-77
2024/01/08 07:47:38;;;;;;;0.20;0.20;;;;;;;4.14;100.00;93676.38;5092676;28;20589;-79
2024/01/08 07:50:08;;;;;;;0.20;0.20;;;;;;;4.16;100.00;93679.53;5093149;28;20333;-77
2024/01/08 07:52:36;;;;;;;0.20;0.20;;;;;;;4.01;100.00;93680.75;5093016;28;20245;-76
2024/01/08 07:55:04;;;;;;;0.20;0.20;;;;;;;4.02;100.00;93684.22;5092682;28;20238;-76
2024/01/08 07:57:31;;;;;;;0.30;0.30;;;;;;;4.08;100.00;93685.66;5093003;28;20206;-79
2024/01/08 07:59:58;;;;;;;0.20;0.20;;;;;;;4.02;100.00;93694.94;5092856;28;20206;-77
2024/01/08 08:02:25;;;;;;;0.22;0.22;;;;;;;3.93;100.00;93702.94;5092220;28;20297;-76
2024/01/08 08:04:53;;;;;;;0.32;0.32;;;;;;;3.94;100.00;93701.84;5091782;28;20194;-77
2024/01/08 08:07:22;;;;;;;1.38;0.90;;;;;;;3.94;100.00;93704.53;5092803;28;20234;-77
2024/01/08 08:09:48;;;;;;;1.58;0.98;;;;;;;4.10;100.00;93708.34;5092771;28;20210;-77
2024/01/08 08:12:15;;;;;;;1.30;0.90;;;;;;;3.98;100.00;93726.91;5092779;28;20310;-77
2024/01/08 08:14:43;;;;;;;2.38;1.35;;;;;;;3.83;100.00;93719.25;5074637;28;20210;-78
2024/01/08 08:17:10;;;;;;;1.10;0.82;;;;;;;3.97;100.00;93730.69;5092864;28;20210;-77
2024/01/08 08:19:37;;;;;;;0.80;0.80;;;;;;;4.08;100.00;93729.34;5092463;28;20217;-78
2024/01/08 08:22:04;;;;;;;2.00;1.02;;;;;;;4.04;100.00;93732.94;5092832;28;20335;-78
2024/01/08 08:24:32;;;;;;;0.75;0.57;;;;;;;4.11;100.00;93734.03;5092620;28;20217;-78
2024/01/08 08:27:00;;;;;;;0.55;0.55;;;;;;;3.96;100.00;93745.19;5079595;28;20202;-80
2024/01/08 08:29:28;;;;;;;1.95;1.10;;;;;;;3.93;100.00;93743.91;5093018;28;20233;-79
2024/01/08 08:31:55;;;;;;;0.50;0.50;;;;;;;3.86;100.00;93743.53;5075968;28;20226;-78
2024/01/08 08:34:22;;;;;;;0.73;0.73;;;;;;;3.94;100.00;93747.38;5094158;28;20203;-79
2024/01/08 08:36:49;;;;;;;1.15;0.80;;;;;;;3.90;100.00;93757.13;5075850;28;20203;-78
2024/01/08 08:39:16;;;;;;;0.75;0.65;;;;;;;3.73;100.00;93755.13;5079023;28;20270;-80
2024/01/08 08:41:45;;;;;;;0.90;0.80;;;;;;;3.74;100.00;93753.25;5089211;28;20305;-78
2024/01/08 08:44:12;;;;;;;0.68;0.68;;;;;;;3.77;100.00;93752.66;5095784;28;20248;-79
2024/01/08 08:46:39;;;;;;;0.70;0.70;;;;;;;3.72;100.00;93750.88;5101095;28;20293;-79
2024/01/08 08:49:06;;;;;;;1.15;1.05;;;;;;;3.92;100.00;93762.97;5086412;28;20225;-79
2024/01/08 08:51:34;;;;;;;1.90;1.13;;;;;;;3.81;100.00;93764.34;5091809;28;20264;-77
2024/01/08 08:54:03;;;;;;;1.33;1.05;;;;;;;3.80;100.00;93766.22;5077541;28;20251;-77
2024/01/08 08:56:32;;;;;;;0.98;0.88;;;;;;;3.92;100.00;93763.75;5090055;28;20605;-76
2024/01/08 08:59:01;;;;;;;1.23;0.68;;;;;;;3.73;100.00;93767.72;5097490;28;20201;-81
2024/01/08 09:01:27;;;;;;;0.70;0.70;;;;;;;3.91;100.00;93772.09;5102012;28;20202;-79
2024/01/08 09:03:54;;;;;;;0.80;0.80;;;;;;;3.97;100.00;93773.53;5091471;28;20214;-79
2024/01/08 09:06:23;;;;;;;2.40;0.80;;;;;;;3.90;100.00;93773.19;5099739;28;20197;-76
2024/01/08 09:08:50;;;;;;;0.65;0.60;;;;;;;3.99;100.00;93776.72;5098619;28;20229;-79
2024/01/08 09:11:18;;;;;;;1.45;0.95;;;;;;;3.92;100.00;93771.00;5111300;28;20618;-77
2024/01/08 09:13:44;;;;;;;0.80;0.77;;;;;;;4.16;100.00;93781.38;5099933;28;20206;-77
2024/01/08 09:16:14;;;;;;;1.00;0.85;;;;;;;3.99;100.00;93776.72;5111512;28;20266;-76
2024/01/08 09:18:41;;;;;;;1.05;0.95;;;;;;;4.06;100.00;93782.44;5102371;28;20280;-78
2024/01/08 09:21:08;;;;;;;0.70;0.70;;;;;;;4.03;100.00;93783.03;5111583;28;20269;-77
2024/01/08 09:23:35;;;;;;;1.00;0.80;;;;;;;4.08;100.00;93785.59;5104642;28;20214;-79
2024/01/08 09:26:04;;;;;;;0.20;0.20;;;;;;;3.98;100.00;93791.19;5111044;28;20262;-76
2024/01/08 09:28:30;;;;;;;0.20;0.20;;;;;;;4.13;100.00;93788.13;5106968;28;20591;-78
2024/01/08 09:30:58;;;;;;;0.20;0.20;;;;;;;4.22;100.00;93785.50;5111200;28;20615;-77
2024/01/08 09:33:30;;;;;;;0.20;0.20;;;;;;;4.19;100.00;93781.56;5109844;28;20201;-80
2024/01/08 09:35:57;;;;;;;0.20;0.20;;;;;;;4.35;100.00;93773.13;5110970;28;20213;-80
2024/01/08 09:38:24;;;;;;;0.20;0.20;;;;;;;4.57;100.00;93781.06;5101700;28;20209;-79
2024/01/08 09:40:51;;;;;;;0.20;0.20;;;;;;;4.48;100.00;93782.94;5107879;28;20225;-80
2024/01/08 09:43:21;;;;;;;0.20;0.20;;;;;;;4.59;100.00;93789.59;5104096;28;20577;-80
2024/01/08 09:46:01;;;;;;;0.43;0.43;;;;;;;4.72;100.00;93783.31;5108484;28;20205;-82
2024/01/08 09:48:30;;;;;;;0.20;0.20;;;;;;;4.44;100.00;93782.75;5092222;28;20310;-77
2024/01/08 09:50:58;;;;;;;0.25;0.25;;;;;;;4.45;100.00;93794.28;5090009;28;20295;-79
2024/01/08 09:53:29;;;;;;;0.30;0.30;;;;;;;4.32;100.00;93787.91;5090406;28;20213;-80
2024/01/08 09:55:57;;;;;;;0.20;0.20;;;;;;;4.42;100.00;93800.25;5090943;28;20289;-77
2024/01/08 09:58:25;;;;;;;0.20;0.20;;;;;;;4.48;100.00;93799.03;5091906;28;20202;-80
2024/01/08 10:00:52;;;;;;;0.35;0.35;;;;;;;4.22;100.00;93797.03;5110852;28;20237;-82
2024/01/08 10:03:19;;;;;;;0.20;0.20;;;;;;;4.05;100.00;93791.56;5091307;28;20236;-78
2024/01/08 10:05:48;;;;;;;0.35;0.35;;;;;;;4.11;100.00;93795.69;5100183;28;20201;-79
2024/01/08 10:08:15;;;;;;;0.25;0.25;;;;;;;4.09;100.00;93797.91;5114212;28;20600;-84
2024/01/08 10:10:42;;;;;;;0.20;0.20;;;;;;;4.36;100.00;93801.50;5105478;28;20578;-84
2024/01/08 10:13:10;;;;;;;0.20;0.20;;;;;;;4.29;100.00;93800.03;5117383;28;20209;-82
2024/01/08 10:15:37;;;;;;;0.20;0.20;;;;;;;4.33;100.00;93796.75;5106960;28;20300;-81
2024/01/08 10:18:08;;;;;;;0.20;0.20;;;;;;;4.39;100.00;93795.50;5114800;28;20293;-81
2024/01/08 10:20:39;;;;;;;0.25;0.25;;;;;;;4.14;100.00;93789.72;5109325;28;20209;-84
2024/01/08 10:23:09;;;;;;;0.20;0.20;;;;;;;4.14;100.00;93792.41;5115725;28;20206;-79
2024/01/08 10:25:37;;;;;;;0.32;0.30;;;;;;;3.97;100.00;93794.19;5099565;28;20198;-76
2024/01/08 10:28:09;;;;;;;0.40;0.40;;;;;;;4.09;100.00;93797.13;5099653;28;20688;-77
2024/01/08 10:30:37;;;;;;;0.20;0.20;;;;;;;4.04;100.00;93789.97;5113982;28;20209;-78
2024/01/08 10:33:04;;;;;;;1.52;0.73;;;;;;;3.99;100.00;93798.13;5102097;28;20199;-79
2024/01/08 10:35:31;;;;;;;0.32;0.32;;;;;;;4.16;100.00;93798.25;5094388;28;20209;-77
2024/01/08 10:37:59;;;;;;;0.20;0.20;;;;;;;4.29;100.00;93797.38;5092633;28;20202;-77
2024/01/08 10:40:29;;;;;;;0.30;0.30;;;;;;;4.08;100.00;93807.03;5096517;28;20205;-81
2024/01/08 10:42:59;;;;;;;0.35;0.35;;;;;;;4.19;100.00;93799.53;5093512;28;20654;-80
2024/01/08 10:45:26;;;;;;;0.40;0.40;;;;;;;4.12;100.00;93791.91;5101115;28;20610;-80
2024/01/08 10:48:05;;;;;;;0.20;0.20;;;;;;;4.10;100.00;93804.81;5093588;28;20202;-79
2024/01/08 10:50:34;;;;;;;0.63;0.63;;;;;;;4.43;100.00;93804.50;5095575;28;20226;-78
2024/01/08 10:53:02;;;;;;;0.95;0.85;;;;;;;4.43;100.00;93807.19;5093686;28;20207;-79
2024/01/08 10:55:32;;;;;;;0.20;0.20;;;;;;;3.96;100.00;93804.13;5078907;28;20720;-76
2024/01/08 10:58:04;;;;;;;0.20;0.20;;;;;;;3.79;100.00;93809.38;5099109;28;20642;-77
2024/01/08 11:00:31;;;;;;;0.45;0.40;;;;;;;3.84;100.00;93807.34;5107429;28;20194;-77
2024/01/08 11:02:59;;;;;;;0.20;0.20;;;;;;;3.92;100.00;93808.50;5092701;28;20206;-78
2024/01/08 11:05:28;;;;;;;0.20;0.20;;;;;;;3.81;100.00;93817.91;5093509;28;20207;-78
2024/01/08 11:07:55;;;;;;;0.68;0.68;;;;;;;3.90;100.00;93816.06;5093268;28;20700;-77
2024/01/08 11:10:24;;;;;;;0.20;0.20;;;;;;;3.90;100.00;93810.69;5099526;28;20280;-79
2024/01/08 11:12:56;;;;;;;0.30;0.30;;;;;;;3.67;100.00;93815.28;5106589;28;20230;-78
2024/01/08 11:15:26;;;;;;;0.20;0.20;;;;;;;3.93;100.00;93816.25;5113004;28;20213;-77
2024/01/08 11:17:54;;;;;;;0.15;0.15;;;;;;;3.95;100.00;93823.97;5108866;28;20312;-76
2024/01/08 11:20:40;;;;;;;0.20;0.20;;;;;;;3.87;100.00;93822.03;5112834;28;20262;-78
2024/01/08 11:23:34;;;;;;;0.43;0.43;;;;;;;3.63;100.00;93821.53;5091107;28;20210;-78
2024/01/08 11:26:01;;;;;;;0.38;0.38;;;;;;;3.89;100.00;93823.31;5094749;28;20297;-79
2024/01/08 11:28:37;;;;;;;0.17;0.17;;;;;;;3.60;100.00;93811.44;5114471;28;20260;-79
2024/01/08 11:31:37;;;;;;;0.20;0.20;;;;;;;4.03;100.00;93830.47;5111587;28;20627;-81
2024/01/08 11:34:48;;;;;;;0.20;0.20;;;;;;;3.92;100.00;93824.59;5057599;28;20298;-79
2024/01/08 11:37:33;;;;;;;0.20;0.20;;;;;;;3.87;100.00;93817.47;5043976;28;20306;-77